• Join FlightAware (Why Join?)
  • Login
  • US Flag 
06:42AM EDT


 

Airport Tracker/Info


-or-


 

Live Flight TrackerFlight Track Log ✈ CES5389 ✈ 28-Jul-2013 ✈ ZSSS / SHA - ZHLY / LYA

Flight Track Log - Related Links

Times and Time Zones

All times are in EDT time to prevent confusion due to time zone crossing. See the CES5389 flight status page for this flight to view local times or setup timezone preferences in your user account.

Time Position Orientation Groundspeed Altitude Reporting Facility
EDT Latitude Longitude Course Direction KTS MPH feet Rate Location/Type
08:21PM 31.1740 121.3350 176° South 159 183 1,800  Level FlightAware
08:22PM 31.1670 121.3350 180° South 158 182 2,200 1,920 Climbing FlightAware
08:22PM 31.1450 121.3360 178° South 163 188 3,100 1,740 Climbing FlightAware
08:23PM 31.1270 121.3370 177° South 173 199 3,800 780 Climbing FlightAware
08:23PM 31.1020 121.3380 178° South 176 203 3,900 960 Climbing FlightAware
08:24PM 31.0680 121.3240 199° South 258 297 4,800 2,280 Climbing FlightAware
08:24PM 31.0580 121.2800 255° West 264 304 6,300 1,380 Climbing FlightAware
08:25PM 31.0550 121.2460 264° West 264 304 6,300 1,380 Level FlightAware
08:27PM 31.1264 121.0936 299° West  Level Estimated
08:27PM 31.2070 121.1250 299° West 301 346 10,000  Level FlightAware
08:27PM 31.2570 121.1170 352° North 309 356 10,000  Level FlightAware
08:28PM 31.3150 121.1170 360° North 309 356 10,000  Level FlightAware
08:29PM 31.3700 121.1170 360° North 305 351 10,000 480 Level FlightAware
08:29PM 31.4370 121.1170 360° North 328 377 10,700 960 Climbing FlightAware
08:30PM 31.4910 121.0950 341° North 359 413 11,400 1,500 Climbing FlightAware
08:31PM 31.5670 121.0550 336° Northwest 382 440 12,900 2,100 Climbing FlightAware
08:31PM 31.6290 121.0220 336° Northwest 389 448 14,400 1,500 Climbing FlightAware
08:32PM 31.6920 120.9890 336° Northwest 393 452 15,000 360 Climbing FlightAware
08:33PM 31.7570 120.9550 336° Northwest 393 452 15,000  Level FlightAware
08:34PM 31.8070 120.9280 335° Northwest 393 452 15,000 1,140 Level FlightAware
08:36PM 31.8711 120.7632 295° West  Level Estimated
08:37PM 31.9036 120.6793 295° West  Level Estimated
08:38PM 31.9361 120.5954 295° West  Level Estimated
08:39PM 31.9685 120.5114 294° West  Level Estimated
08:40PM 32.0008 120.4274 294° West  Level Estimated
08:40PM 32.2170 120.1840 294° West 438 504 23,600  Level FlightAware
08:41PM 32.0331 120.3432 294° West  Level Estimated
08:41PM 32.2250 120.0800 275° West 438 504 23,600  Level FlightAware
08:42PM 32.2330 119.9880 276° West 438 504 23,600  Level FlightAware
08:42PM 32.2390 119.9150 276° West 438 504 23,600  Level FlightAware
08:43PM 32.2460 119.8400 276° West 438 504 23,600  Level FlightAware
08:44PM 32.2540 119.7430 276° West 438 504 23,600  Level FlightAware
08:44PM 32.2610 119.6700 276° West 438 504 23,600  Level FlightAware
08:47PM 32.3261 119.4982 294° West  Level Estimated
08:48PM 32.3581 119.4136 294° West  Level Estimated
08:49PM 32.3900 119.3289 294° West  Level Estimated
08:50PM 32.4218 119.2442 294° West  Level Estimated
08:51PM 32.4536 119.1594 294° West  Level Estimated
08:52PM 32.4853 119.0746 294° West  Level Estimated
08:53PM 32.5170 118.9897 294° West  Level Estimated
08:54PM 32.5486 118.9047 294° West  Level Estimated
08:55PM 32.5802 118.8197 294° West  Level Estimated
08:56PM 32.6116 118.7346 294° West  Level Estimated
08:57PM 32.6431 118.6495 294° West  Level Estimated
08:58PM 32.6745 118.5643 294° West  Level Estimated
08:59PM 32.7058 118.4791 294° West  Level Estimated
09:00PM 32.7371 118.3938 294° West  Level Estimated
09:01PM 32.7683 118.3084 294° West  Level Estimated
09:02PM 32.7994 118.2230 293° West  Level Estimated
09:03PM 32.8305 118.1375 293° West  Level Estimated
09:04PM 32.8615 118.0519 293° West  Level Estimated
09:05PM 32.8925 117.9663 293° West  Level Estimated
09:06PM 32.9234 117.8806 293° West  Level Estimated
09:07PM 32.9543 117.7949 293° West  Level Estimated
09:08PM 32.9851 117.7091 293° West  Level Estimated
09:09PM 33.0158 117.6233 293° West  Level Estimated
09:10PM 33.0465 117.5374 293° West  Level Estimated
09:11PM 33.0771 117.4514 293° West  Level Estimated
09:12PM 33.1077 117.3653 293° West  Level Estimated
09:13PM 33.1382 117.2793 293° West  Level Estimated
09:14PM 33.1687 117.1931 293° West  Level Estimated
09:15PM 33.1991 117.1069 293° West  Level Estimated
09:16PM 33.2294 117.0206 293° West  Level Estimated
09:17PM 33.2597 116.9343 293° West  Level Estimated
09:18PM 33.2899 116.8479 293° West  Level Estimated
09:19PM 33.3200 116.7615 293° West  Level Estimated
09:20PM 33.3501 116.6749 293° West  Level Estimated
09:21PM 33.3801 116.5884 293° West  Level Estimated
09:22PM 33.4101 116.5017 293° West  Level Estimated
09:23PM 33.4400 116.4151 292° West  Level Estimated
09:24PM 33.4699 116.3283 292° West  Level Estimated
09:25PM 33.4996 116.2415 292° West  Level Estimated
09:26PM 33.5294 116.1546 292° West  Level Estimated
09:27PM 33.5707 116.0334 292° West  Level Estimated
09:28PM 33.6120 115.9120 292° West  Level Estimated
09:29PM 33.6531 115.7905 292° West  Level Estimated
09:30PM 33.6941 115.6689 292° West  Level Estimated
09:31PM 33.7350 115.5472 292° West  Level Estimated
09:32PM 33.7757 115.4253 292° West  Level Estimated
09:33PM 33.8164 115.3034 292° West  Level Estimated
09:34PM 33.8569 115.1813 292° West  Level Estimated
09:35PM 33.8973 115.0591 292° West  Level Estimated
09:36PM 33.9376 114.9368 292° West  Level Estimated
09:37PM 33.9777 114.8144 292° West  Level Estimated
09:38PM 34.0178 114.6919 292° West  Level Estimated
09:39PM 34.0577 114.5692 291° West  Level Estimated
09:40PM 34.0975 114.4465 291° West  Level Estimated
09:41PM 34.1372 114.3236 291° West  Level Estimated
09:42PM 34.1767 114.2006 291° West  Level Estimated
09:43PM 34.2162 114.0775 291° West  Level Estimated
09:44PM 34.2555 113.9543 291° West  Level Estimated
09:45PM 34.2947 113.8309 291° West  Level Estimated
09:46PM 34.3337 113.7075 291° West  Level Estimated
09:47PM 34.3727 113.5839 291° West  Level Estimated
09:48PM 34.4070 113.4746 291° West  Level Estimated
09:49PM 34.4412 113.3652 291° West  Level Estimated
09:50PM 34.4753 113.2557 291° West  Level Estimated
09:51PM 34.5093 113.1462 291° West  Level Estimated
09:52PM 34.5432 113.0365 291° West  Level Estimated
09:53PM 34.5770 112.9268 291° West  Level Estimated
09:54PM 34.6107 112.8169 290° West  Level Estimated
09:55PM 34.6443 112.7070 290° West  Level Estimated
09:56PM 34.6779 112.5970 290° West  Level Estimated
09:57PM 34.7113 112.4869 290° West  Level Estimated
09:58PM 34.7411 112.3883 290° West  Level Estimated
09:59PM 34.7411 112.3883 68° East  Level Estimated
10:00PM 34.7411 112.3883 68° East  Level Estimated
10:01PM 34.7411 112.3883 68° East  Level Estimated
10:02PM 34.7411 112.3883 68° East  Level Estimated
10:03PM 34.7411 112.3883 68° East  Level Estimated